Time;durP1;ratioP1;P1;durP2;ratioP2;P2;SDS_P1;SDS_P2;PMS_P1;PMS_P2;Temp;Humidity;BMP_temperature;BMP_pressure;BME280_temperature;BME280_humidity;BME280_pressure;Samples;Min_cycle;Max_cycle;Signal;HPM_P1;HPM_P2
2021/11/07 00:00:39;;;;;;;3.33;1.73;;;;;;;5.13;78.23;100556.13;6286835;28;20211;-74
2021/11/07 00:03:45;;;;;;;2.03;2.00;;;;;;;5.20;78.49;100546.22;6285817;28;20467;-74
2021/11/07 00:06:54;;;;;;;1.87;1.87;;;;;;;5.36;77.82;100546.00;6286212;28;20202;-74
2021/11/07 00:10:03;;;;;;;1.93;1.93;;;;;;;5.30;78.44;100535.94;6285769;28;20446;-73
2021/11/07 00:13:15;;;;;;;7.30;2.50;;;;;;;5.21;79.11;100526.28;6285738;28;20479;-73
2021/11/07 00:16:24;;;;;;;1.80;1.80;;;;;;;5.25;78.68;100516.75;6290950;28;20250;-73
2021/11/07 00:19:33;;;;;;;3.07;2.97;;;;;;;5.35;78.41;100506.44;6290572;28;20518;-73
2021/11/07 00:22:49;;;;;;;51.53;26.00;;;;;;;5.42;79.05;100499.22;6291791;28;20258;-73
2021/11/07 00:25:59;;;;;;;9.10;7.37;;;;;;;5.51;78.21;100492.69;6291425;28;20192;-73
2021/11/07 00:29:07;;;;;;;1.93;1.93;;;;;;;5.48;77.87;100474.97;6291362;28;20188;-73
2021/11/07 00:32:19;;;;;;;1.90;1.80;;;;;;;5.24;79.50;100471.81;6290813;28;20188;-73
2021/11/07 00:35:48;;;;;;;1.63;1.53;;;;;;;5.28;79.53;100473.09;6290172;28;20192;-73
2021/11/07 00:38:58;;;;;;;2.37;1.97;;;;;;;5.24;78.99;100469.09;6291220;28;20218;-73
2021/11/07 00:42:09;;;;;;;1.77;1.77;;;;;;;5.21;79.61;100466.78;6291112;28;20194;-74
2021/11/07 00:45:24;;;;;;;1.50;1.50;;;;;;;5.37;79.24;100450.28;6291020;28;20250;-74
2021/11/07 00:48:31;;;;;;;1.50;1.50;;;;;;;5.48;78.79;100455.19;6289823;28;20370;-74
2021/11/07 00:51:42;;;;;;;1.50;1.50;;;;;;;5.52;78.85;100440.25;6289891;28;20241;-74
2021/11/07 00:54:55;;;;;;;1.30;1.30;;;;;;;5.60;79.12;100432.81;6289878;28;20194;-74
2021/11/07 00:58:06;;;;;;;3.63;3.43;;;;;;;5.72;78.31;100433.16;6290771;28;20195;-74
2021/11/07 01:01:12;;;;;;;5.73;3.50;;;;;;;5.61;79.22;100428.25;6289535;28;20513;-74
2021/11/07 01:04:17;;;;;;;2.57;1.70;;;;;;;5.62;79.17;100438.06;6290770;28;20188;-74
2021/11/07 01:07:23;;;;;;;2.67;1.43;;;;;;;5.87;78.04;100414.97;6289679;28;20262;-74
2021/11/07 01:10:30;;;;;;;1.50;1.47;;;;;;;5.83;78.72;100402.81;6290456;28;20222;-74
2021/11/07 01:13:36;;;;;;;20.23;11.83;;;;;;;5.81;77.94;100394.06;6290534;28;20188;-74
2021/11/07 01:16:42;;;;;;;2.83;2.73;;;;;;;5.80;77.51;100392.41;6290475;28;20187;-74
2021/11/07 01:19:47;;;;;;;2.33;1.40;;;;;;;5.98;77.07;100390.06;6289230;28;20549;-74
2021/11/07 01:22:56;;;;;;;1.20;1.10;;;;;;;6.01;76.34;100386.94;6290511;28;20255;-74
2021/11/07 01:26:06;;;;;;;7.87;5.87;;;;;;;5.86;77.51;100375.38;6289070;28;20192;-74
2021/11/07 01:29:14;;;;;;;148.90;71.07;;;;;;;6.10;76.35;100366.81;6289054;28;20533;-74
2021/11/07 01:32:21;;;;;;;3.30;2.50;;;;;;;6.20;76.30;100355.59;6289002;28;20280;-74
2021/11/07 01:35:30;;;;;;;1.10;1.10;;;;;;;5.95;76.90;100363.38;6290301;28;20196;-77
2021/11/07 01:38:38;;;;;;;1.20;1.20;;;;;;;6.08;77.11;100358.06;6288692;28;20365;-74
2021/11/07 01:42:02;;;;;;;3.47;1.30;;;;;;;6.13;76.60;100339.34;6289059;28;20235;-74
2021/11/07 01:45:13;;;;;;;1.13;1.13;;;;;;;6.06;77.20;100334.91;6289724;28;20242;-74
2021/11/07 01:48:21;;;;;;;2.40;1.23;;;;;;;6.12;77.20;100324.09;6288566;28;20535;-74
2021/11/07 01:51:25;;;;;;;1.30;1.30;;;;;;;6.23;76.75;100317.28;6289841;28;20234;-74
2021/11/07 01:54:46;;;;;;;1.20;1.20;;;;;;;6.18;77.34;100311.63;6289855;28;20184;-74
2021/11/07 01:57:52;;;;;;;1.17;1.07;;;;;;;6.07;78.36;100291.38;6288565;28;20219;-74
2021/11/07 02:00:57;;;;;;;2.00;1.30;;;;;;;6.17;77.74;100289.13;6289755;28;20222;-74
2021/11/07 02:04:03;;;;;;;1.30;1.30;;;;;;;6.09;78.33;100283.88;6289622;28;20219;-74
2021/11/07 02:07:07;;;;;;;1.50;1.50;;;;;;;6.14;79.39;100291.41;6289069;28;20238;-74
2021/11/07 02:10:15;;;;;;;1.30;1.30;;;;;;;6.13;78.62;100268.91;6289158;28;20196;-74
2021/11/07 02:13:22;;;;;;;1.20;1.20;;;;;;;6.10;79.22;100268.47;6288118;28;20406;-74
2021/11/07 02:16:26;;;;;;;1.40;1.10;;;;;;;6.14;80.08;100270.56;6288064;28;20475;-74
2021/11/07 02:19:31;;;;;;;1.13;1.13;;;;;;;6.11;80.03;100259.31;6288846;28;20185;-74
2021/11/07 02:22:38;;;;;;;1.30;1.17;;;;;;;6.07;80.28;100258.03;6288702;28;20218;-74
2021/11/07 02:25:44;;;;;;;1.00;1.00;;;;;;;6.14;80.86;100248.91;6287757;28;20209;-75
2021/11/07 02:28:49;;;;;;;0.90;0.90;;;;;;;6.22;81.37;100246.00;6287678;28;20521;-74
2021/11/07 02:31:56;;;;;;;1.20;1.20;;;;;;;6.22;82.05;100240.59;6288491;28;20188;-74
2021/11/07 02:35:01;;;;;;;4.53;0.90;;;;;;;6.28;83.53;100231.66;6287420;28;20501;-74
2021/11/07 02:38:07;;;;;;;1.00;1.00;;;;;;;6.25;84.31;100207.69;6286931;28;20184;-74
2021/11/07 02:41:11;;;;;;;1.00;1.00;;;;;;;6.32;84.63;100205.81;6287318;28;20530;-74
2021/11/07 02:44:33;;;;;;;1.00;1.00;;;;;;;6.47;84.91;100204.84;6287202;28;20372;-74
2021/11/07 02:47:37;;;;;;;0.90;0.90;;;;;;;6.45;86.30;100202.31;6288326;28;20192;-75
2021/11/07 02:50:41;;;;;;;1.00;1.00;;;;;;;6.46;87.14;100186.88;6287553;28;20188;-75
2021/11/07 02:53:47;;;;;;;0.97;0.97;;;;;;;6.44;88.28;100188.97;6287589;28;20195;-75
2021/11/07 02:56:52;;;;;;;0.90;0.90;;;;;;;6.44;88.04;100188.97;6288327;28;20188;-74
2021/11/07 02:59:58;;;;;;;1.07;1.07;;;;;;;6.44;89.50;100178.13;6288202;28;20195;-74
2021/11/07 03:03:02;;;;;;;0.90;0.90;;;;;;;6.48;88.86;100184.81;6288234;28;20251;-74
2021/11/07 03:06:06;;;;;;;0.90;0.90;;;;;;;6.49;88.64;100162.09;6286956;28;20377;-74
2021/11/07 03:09:21;;;;;;;1.53;1.13;;;;;;;6.50;89.82;100164.59;6287943;28;20231;-74
2021/11/07 03:12:26;;;;;;;0.93;0.93;;;;;;;6.62;88.93;100160.25;6287722;28;20195;-74
2021/11/07 03:15:31;;;;;;;0.80;0.80;;;;;;;6.67;89.16;100156.91;6286740;28;20277;-74
2021/11/07 03:18:36;;;;;;;1.00;1.00;;;;;;;6.50;90.53;100139.34;6287478;28;20229;-74
2021/11/07 03:21:41;;;;;;;1.03;1.03;;;;;;;6.52;91.40;100126.47;6287368;28;20211;-74
2021/11/07 03:24:52;;;;;;;1.13;1.13;;;;;;;6.45;92.16;100112.03;6286401;28;20414;-74
2021/11/07 03:27:57;;;;;;;1.10;1.00;;;;;;;6.47;92.55;100096.44;6286360;28;20497;-74
2021/11/07 03:31:08;;;;;;;3.10;1.10;;;;;;;6.52;92.59;100088.53;6287337;28;20255;-74
2021/11/07 03:34:17;;;;;;;1.23;0.90;;;;;;;6.46;93.83;100075.78;6286196;28;20228;-74
2021/11/07 03:37:26;;;;;;;0.90;0.90;;;;;;;6.37;94.55;100079.78;6286279;28;20413;-74
2021/11/07 03:40:33;;;;;;;1.20;1.20;;;;;;;6.50;94.17;100064.31;6287102;28;20188;-74
2021/11/07 03:43:38;;;;;;;1.00;1.00;;;;;;;6.47;94.15;100064.72;6286448;28;20212;-74
2021/11/07 03:46:43;;;;;;;1.30;1.30;;;;;;;6.44;94.53;100069.75;6287120;28;20230;-74
2021/11/07 03:49:48;;;;;;;1.33;1.00;;;;;;;6.48;94.13;100060.16;6290103;28;20265;-74
2021/11/07 03:52:52;;;;;;;1.10;1.10;;;;;;;6.55;94.24;100066.44;6292743;28;20226;-74
2021/11/07 03:56:00;;;;;;;0.87;0.87;;;;;;;6.47;94.88;100058.50;6291182;28;20184;-74
2021/11/07 03:59:05;;;;;;;0.80;0.80;;;;;;;6.47;95.28;100042.25;6292182;28;20184;-74
2021/11/07 04:02:11;;;;;;;0.90;0.90;;;;;;;6.55;95.25;100033.91;6292065;28;20215;-74
2021/11/07 04:05:16;;;;;;;2.00;1.00;;;;;;;6.50;96.01;100030.97;6291423;28;20219;-75
2021/11/07 04:08:20;;;;;;;0.90;0.90;;;;;;;6.54;95.71;100024.09;6290829;28;20417;-74
2021/11/07 04:11:26;;;;;;;1.00;1.00;;;;;;;6.46;96.93;100018.91;6291883;28;20217;-74
2021/11/07 04:14:33;;;;;;;1.00;1.00;;;;;;;6.41;97.27;100016.81;6292178;28;20195;-74
2021/11/07 04:17:39;;;;;;;0.90;0.90;;;;;;;6.46;96.96;100018.91;6291706;28;20188;-75
2021/11/07 04:20:43;;;;;;;1.23;1.10;;;;;;;6.48;97.39;100005.97;6292088;28;20187;-74
2021/11/07 04:23:48;;;;;;;0.90;0.90;;;;;;;6.45;98.16;100006.38;6290625;28;20238;-74
2021/11/07 04:26:54;;;;;;;1.00;1.00;;;;;;;6.49;98.37;99996.81;6290491;28;20194;-74
2021/11/07 04:29:58;;;;;;;1.03;1.03;;;;;;;6.47;98.13;99988.88;6290513;28;20192;-74
2021/11/07 04:33:03;;;;;;;1.13;1.00;;;;;;;6.50;98.91;99993.03;6291412;28;20195;-74
2021/11/07 04:36:09;;;;;;;0.90;0.90;;;;;;;6.59;98.32;99980.94;6290232;28;20410;-74
2021/11/07 04:39:15;;;;;;;1.00;1.00;;;;;;;6.60;98.76;99977.19;6290286;28;20351;-74
2021/11/07 04:42:21;;;;;;;2.30;0.90;;;;;;;6.67;98.57;99967.16;6290139;28;20399;-74
2021/11/07 04:45:25;;;;;;;0.90;0.90;;;;;;;6.65;99.16;99963.84;6291205;28;20195;-74
2021/11/07 04:48:33;;;;;;;1.90;0.97;;;;;;;6.72;99.32;99959.22;6290224;28;20566;-74
2021/11/07 04:51:37;;;;;;;0.93;0.93;;;;;;;6.74;99.15;99949.00;6290418;28;20219;-77
2021/11/07 04:54:41;;;;;;;1.10;1.10;;;;;;;6.78;99.43;99947.50;6289948;28;20522;-74
2021/11/07 04:57:47;;;;;;;0.83;0.83;;;;;;;6.77;99.61;99940.44;6291200;28;20189;-74
2021/11/07 05:00:52;;;;;;;2.47;1.00;;;;;;;6.85;99.39;99932.06;6289264;28;20435;-74
2021/11/07 05:03:56;;;;;;;1.00;0.97;;;;;;;6.81;99.76;99937.06;6289617;28;20219;-74
2021/11/07 05:07:00;;;;;;;1.40;1.00;;;;;;;6.84;100.00;99930.41;6290189;28;20334;-74
2021/11/07 05:10:06;;;;;;;1.03;1.03;;;;;;;6.93;100.00;99918.28;6289204;28;20208;-74
2021/11/07 05:13:12;;;;;;;0.87;0.87;;;;;;;6.99;100.00;99916.56;6290855;28;20195;-74
2021/11/07 05:16:16;;;;;;;1.00;1.00;;;;;;;6.94;100.00;99919.91;6289256;28;20207;-74
2021/11/07 05:19:20;;;;;;;2.00;1.07;;;;;;;6.87;100.00;99898.28;6289659;28;20252;-74
2021/11/07 05:22:24;;;;;;;0.97;0.97;;;;;;;6.90;100.00;99907.84;6289936;28;20215;-74
2021/11/07 05:25:29;;;;;;;0.90;0.90;;;;;;;6.94;100.00;99903.66;6290138;28;20262;-74
2021/11/07 05:28:43;;;;;;;0.90;0.90;;;;;;;6.91;100.00;99882.38;6289915;28;20222;-74
2021/11/07 05:31:47;;;;;;;1.63;0.83;;;;;;;6.84;100.00;99887.84;6290381;28;20261;-74
2021/11/07 05:34:51;;;;;;;0.93;0.93;;;;;;;6.79;100.00;99878.69;6289404;28;20191;-74
2021/11/07 05:37:56;;;;;;;0.80;0.80;;;;;;;6.86;100.00;99879.50;6290022;28;20184;-74
2021/11/07 05:41:00;;;;;;;0.73;0.73;;;;;;;6.88;100.00;99877.41;6288817;28;20490;-74
2021/11/07 05:44:08;;;;;;;1.40;1.00;;;;;;;6.83;100.00;99874.53;6289795;28;20208;-74
2021/11/07 05:47:12;;;;;;;1.10;0.97;;;;;;;6.86;100.00;99863.22;6288633;28;20339;-74
2021/11/07 05:50:18;;;;;;;0.90;0.90;;;;;;;6.87;100.00;99864.91;6288476;28;20200;-74
2021/11/07 05:53:22;;;;;;;4.53;1.00;;;;;;;6.94;100.00;99860.25;6289155;28;20200;-74
2021/11/07 05:56:27;;;;;;;3.07;1.00;;;;;;;6.99;100.00;99855.03;6288444;28;20188;-74
2021/11/07 05:59:33;;;;;;;0.87;0.87;;;;;;;7.00;100.00;99848.56;6289863;28;20210;-74
2021/11/07 06:02:37;;;;;;;1.55;1.05;;;;;;;7.00;100.00;99853.97;6288608;28;20247;-74
2021/11/07 06:05:42;;;;;;;1.50;1.00;;;;;;;7.03;100.00;99836.44;6289264;28;20235;-74
2021/11/07 06:08:46;;;;;;;0.90;0.90;;;;;;;7.14;100.00;99839.28;6289898;28;20299;-74
2021/11/07 06:11:50;;;;;;;0.60;0.60;;;;;;;7.05;100.00;99837.88;6288314;28;20187;-74
2021/11/07 06:14:56;;;;;;;1.00;0.90;;;;;;;7.14;100.00;99839.28;6289342;28;20191;-75
2021/11/07 06:18:00;;;;;;;1.30;0.80;;;;;;;7.00;100.00;99831.44;6289007;28;20184;-74
2021/11/07 06:21:05;;;;;;;1.07;1.07;;;;;;;6.96;100.00;99822.09;6287849;28;20191;-74
2021/11/07 06:24:12;;;;;;;2.63;1.37;;;;;;;6.92;100.00;99818.97;6287807;28;20433;-74
2021/11/07 06:27:17;;;;;;;2.10;1.10;;;;;;;6.96;100.00;99825.63;6287662;28;20498;-74
2021/11/07 06:30:22;;;;;;;0.80;0.80;;;;;;;6.99;100.00;99814.34;6289069;28;20188;-74
2021/11/07 06:33:26;;;;;;;0.97;0.97;;;;;;;6.98;100.00;99809.16;6288542;28;20327;-74
2021/11/07 06:36:30;;;;;;;0.70;0.70;;;;;;;6.97;100.00;99800.19;6287515;28;20479;-74
2021/11/07 06:39:35;;;;;;;0.80;0.80;;;;;;;7.14;100.00;99803.22;6287400;28;20184;-74
2021/11/07 06:42:39;;;;;;;0.75;0.75;;;;;;;7.14;100.00;99804.00;6288170;28;20190;-74
2021/11/07 06:45:46;;;;;;;0.85;0.85;;;;;;;7.07;100.00;99792.38;6288662;28;20230;-74
2021/11/07 06:48:50;;;;;;;2.15;0.90;;;;;;;7.16;100.00;99793.81;6287284;28;20419;-74
2021/11/07 06:51:55;;;;;;;0.50;0.50;;;;;;;7.05;100.00;99791.78;6288050;28;20251;-74
2021/11/07 06:55:00;;;;;;;0.73;0.70;;;;;;;6.94;100.00;99778.91;6288487;28;20263;-74
2021/11/07 06:58:05;;;;;;;0.80;0.80;;;;;;;7.09;100.00;99782.16;6288086;28;20207;-74
2021/11/07 07:01:13;;;;;;;0.73;0.73;;;;;;;7.17;100.00;99779.16;6288325;28;20191;-74
2021/11/07 07:04:20;;;;;;;0.70;0.70;;;;;;;7.23;100.00;99772.88;6287840;28;20215;-74
2021/11/07 07:07:26;;;;;;;0.75;0.75;;;;;;;7.19;100.00;99776.25;6286908;28;20247;-74
2021/11/07 07:10:43;;;;;;;1.00;0.70;;;;;;;7.11;100.00;99771.94;6287799;28;20191;-74
2021/11/07 07:13:53;;;;;;;0.80;0.80;;;;;;;7.10;100.00;99770.25;6287767;28;20195;-74
2021/11/07 07:17:05;;;;;;;1.13;0.90;;;;;;;7.12;100.00;99762.72;6286622;28;20189;-74
2021/11/07 07:20:24;;;;;;;1.13;1.07;;;;;;;7.10;100.00;99767.53;6286533;28;20468;-74
2021/11/07 07:27:14;;;;;;;0.90;0.90;;;;;;;7.09;100.00;99760.44;6286815;28;20214;-74
2021/11/07 07:30:35;;;;;;;0.90;0.82;;;;;;;7.02;100.00;99754.25;6287791;28;20184;-74
2021/11/07 07:33:46;;;;;;;1.43;1.03;;;;;;;7.06;100.00;99755.47;6286967;28;20219;-74
2021/11/07 07:36:51;;;;;;;1.70;0.85;;;;;;;7.15;100.00;99748.72;6287749;28;20212;-75
2021/11/07 07:39:55;;;;;;;0.70;0.70;;;;;;;7.22;100.00;99760.34;6287732;28;20252;-75
2021/11/07 07:42:59;;;;;;;0.77;0.77;;;;;;;7.13;100.00;99750.84;6286680;28;20187;-75
2021/11/07 07:46:07;;;;;;;1.00;1.00;;;;;;;7.19;100.00;99755.34;6287104;28;20214;-74
2021/11/07 07:49:16;;;;;;;1.27;0.97;;;;;;;7.19;100.00;99743.69;6286219;28;20184;-74
2021/11/07 07:52:23;;;;;;;1.07;0.83;;;;;;;7.18;100.00;99737.44;6286170;28;20355;-75
2021/11/07 07:55:27;;;;;;;2.83;0.80;;;;;;;7.27;100.00;99746.94;6286220;28;20539;-75
2021/11/07 07:58:32;;;;;;;1.30;0.80;;;;;;;7.30;100.00;99732.94;6287247;28;20253;-74
2021/11/07 08:01:38;;;;;;;1.10;1.00;;;;;;;7.33;100.00;99740.63;6287108;28;20184;-74
2021/11/07 08:04:43;;;;;;;0.80;0.80;;;;;;;7.26;100.00;99733.63;6286988;28;20218;-74
2021/11/07 08:07:48;;;;;;;1.38;1.00;;;;;;;7.31;100.00;99737.31;6286196;28;20339;-74
2021/11/07 08:10:52;;;;;;;0.87;0.87;;;;;;;7.23;100.00;99726.75;6287311;28;20215;-75
2021/11/07 08:13:57;;;;;;;1.17;1.07;;;;;;;7.25;100.00;99727.34;6285898;28;20472;-75
2021/11/07 08:17:01;;;;;;;1.00;1.00;;;;;;;7.34;100.00;99726.03;6285805;28;20438;-76
2021/11/07 08:20:12;;;;;;;1.60;0.97;;;;;;;7.33;100.00;99724.38;6287277;28;20189;-74
2021/11/07 08:23:17;;;;;;;2.63;0.90;;;;;;;7.26;100.00;99718.19;6285756;28;20185;-76
2021/11/07 08:26:22;;;;;;;0.70;0.70;;;;;;;7.20;100.00;99724.47;6286621;28;20212;-74
2021/11/07 08:29:26;;;;;;;1.08;0.90;;;;;;;7.19;100.00;99711.94;6287041;28;20215;-76
2021/11/07 08:32:30;;;;;;;1.30;1.03;;;;;;;7.23;100.00;99707.75;6285535;28;20472;-74
2021/11/07 08:35:39;;;;;;;10.57;1.10;;;;;;;7.20;100.00;99710.91;6288950;28;20188;-74
2021/11/07 08:38:47;;;;;;;0.97;0.90;;;;;;;7.22;100.00;99703.38;6291648;28;20295;-75
2021/11/07 08:41:57;;;;;;;1.00;1.00;;;;;;;7.35;100.00;99689.69;6291209;28;20215;-74
2021/11/07 09:02:10;;;;;;;0.70;0.70;;;;;;;7.35;100.00;99689.69;6290623;28;20191;-74
2021/11/07 09:05:17;;;;;;;2.95;0.80;;;;;;;7.22;100.00;99684.38;6290253;28;20223;-74
2021/11/07 09:08:24;;;;;;;0.50;0.50;;;;;;;7.19;100.00;99695.69;6290803;28;20266;-74
2021/11/07 09:11:28;;;;;;;0.70;0.70;;;;;;;7.18;100.00;99693.19;6290099;28;20184;-74
2021/11/07 09:14:37;;;;;;;0.60;0.60;;;;;;;7.22;100.00;99673.53;6289529;28;20317;-74
2021/11/07 09:17:43;;;;;;;0.77;0.77;;;;;;;7.24;100.00;99673.34;6289744;28;20219;-74
2021/11/07 09:20:56;;;;;;;0.88;0.63;;;;;;;7.19;100.00;99679.41;6290644;28;20191;-74
2021/11/07 09:24:06;;;;;;;0.80;0.80;;;;;;;7.12;100.00;99672.38;6289196;28;20499;-75
2021/11/07 09:27:17;;;;;;;1.27;0.80;;;;;;;7.15;100.00;99667.34;6289120;28;20467;-74
2021/11/07 09:30:26;;;;;;;0.80;0.80;;;;;;;7.16;100.00;99669.03;6290171;28;20191;-74
2021/11/07 09:33:35;;;;;;;1.35;0.60;;;;;;;7.25;100.00;99667.66;6290463;28;20252;-74
2021/11/07 09:36:44;;;;;;;0.70;0.70;;;;;;;7.23;100.00;99679.81;6290055;28;20189;-74
2021/11/07 09:39:54;;;;;;;0.87;0.80;;;;;;;7.18;100.00;99672.34;6290168;28;20191;-74
2021/11/07 09:46:19;;;;;;;1.33;0.70;;;;;;;7.14;100.00;99671.09;6288844;28;20224;-73
2021/11/07 09:49:27;;;;;;;0.70;0.70;;;;;;;7.21;100.00;99655.63;6288560;28;20334;-73
2021/11/07 09:52:37;;;;;;;0.80;0.80;;;;;;;7.21;100.00;99654.78;6289736;28;20252;-74
2021/11/07 09:55:44;;;;;;;0.80;0.80;;;;;;;7.13;100.00;99665.91;6288755;28;20196;-74
2021/11/07 09:58:51;;;;;;;0.80;0.80;;;;;;;7.22;100.00;99657.25;6289236;28;20184;-73
2021/11/07 10:01:57;;;;;;;0.80;0.80;;;;;;;7.16;100.00;99663.59;6288158;28;20334;-74
2021/11/07 10:05:03;;;;;;;0.80;0.80;;;;;;;7.24;100.00;99655.16;6289302;28;20212;-73
2021/11/07 10:08:10;;;;;;;0.67;0.60;;;;;;;7.06;100.00;99657.81;6289214;28;20266;-73
2021/11/07 10:11:16;;;;;;;1.33;0.83;;;;;;;7.08;100.00;99655.75;6289257;28;20184;-75
2021/11/07 10:14:21;;;;;;;0.80;0.70;;;;;;;7.13;100.00;99658.63;6287692;28;20180;-73
2021/11/07 10:17:35;;;;;;;0.70;0.70;;;;;;;7.11;100.00;99655.31;6288035;28;20192;-73
2021/11/07 10:20:43;;;;;;;0.93;0.80;;;;;;;7.23;100.00;99658.09;6288738;28;20184;-74
2021/11/07 10:24:02;;;;;;;0.63;0.63;;;;;;;7.01;100.00;99665.81;6288500;28;20184;-73
2021/11/07 10:27:15;;;;;;;0.60;0.60;;;;;;;7.05;100.00;99660.78;6288246;28;20250;-73
2021/11/07 10:30:23;;;;;;;0.60;0.60;;;;;;;7.04;100.00;99659.94;6288306;28;20188;-74
2021/11/07 10:33:52;;;;;;;0.60;0.60;;;;;;;7.03;100.00;99662.88;6288442;28;20252;-74
2021/11/07 10:40:39;;;;;;;0.60;0.60;;;;;;;6.88;100.00;99676.78;6288249;28;20224;-73
2021/11/07 10:43:54;;;;;;;0.70;0.70;;;;;;;6.86;100.00;99668.03;6287163;28;20457;-74
2021/11/07 10:47:18;;;;;;;1.10;0.60;;;;;;;6.93;100.00;99660.69;6288122;28;20223;-74
2021/11/07 10:53:45;;;;;;;0.73;0.70;;;;;;;6.78;100.00;99668.28;6286876;28;20185;-74
2021/11/07 10:57:13;;;;;;;0.70;0.70;;;;;;;6.75;100.00;99671.47;6286882;28;20265;-73
2021/11/07 11:00:25;;;;;;;0.60;0.60;;;;;;;6.69;100.00;99669.63;6287308;28;20184;-73
2021/11/07 11:03:30;;;;;;;0.60;0.60;;;;;;;6.73;100.00;99679.81;6288139;28;20222;-73
2021/11/07 11:06:34;;;;;;;0.50;0.50;;;;;;;6.76;100.00;99683.94;6286536;28;20294;-74
2021/11/07 11:09:46;;;;;;;3.47;1.27;;;;;;;6.74;100.00;99686.06;6286661;28;20373;-73
2021/11/07 11:13:07;;;;;;;0.80;0.80;;;;;;;6.75;100.00;99682.31;6287451;28;20290;-73
2021/11/07 11:16:30;;;;;;;0.50;0.50;;;;;;;6.71;100.00;99675.66;6286679;28;20384;-74
2021/11/07 11:19:48;;;;;;;0.60;0.60;;;;;;;6.69;100.00;99688.59;6287571;28;20184;-74
2021/11/07 11:22:58;;;;;;;2.03;0.90;;;;;;;6.76;100.00;99678.53;6287452;28;20216;-73
2021/11/07 11:26:18;;;;;;;0.63;0.63;;;;;;;6.62;100.00;99687.81;6286310;28;20219;-73
2021/11/07 11:29:38;;;;;;;0.70;0.70;;;;;;;6.66;100.00;99691.75;6286785;28;20191;-74
2021/11/07 11:32:49;;;;;;;1.57;0.70;;;;;;;6.63;100.00;99697.59;6287523;28;20188;-73
2021/11/07 11:36:01;;;;;;;0.67;0.67;;;;;;;6.62;100.00;99685.13;6287619;28;20215;-73
2021/11/07 11:39:10;;;;;;;0.67;0.67;;;;;;;6.67;100.00;99690.69;6287297;28;20185;-74
2021/11/07 11:42:21;;;;;;;1.27;0.70;;;;;;;6.72;100.00;99690.88;6287019;28;20195;-73
2021/11/07 11:45:30;;;;;;;0.70;0.70;;;;;;;6.60;100.00;99706.19;6286017;28;20187;-73
2021/11/07 11:52:27;;;;;;;0.80;0.80;;;;;;;6.68;100.00;99703.19;6276938;28;20200;-73
2021/11/07 11:55:43;;;;;;;0.63;0.63;;;;;;;6.54;100.00;99712.47;6286149;28;20184;-73
2021/11/07 11:58:54;;;;;;;0.80;0.80;;;;;;;6.57;100.00;99709.31;6287318;28;20195;-73
2021/11/07 12:02:11;;;;;;;2.20;0.90;;;;;;;6.46;100.00;99713.56;6285833;28;20357;-73
2021/11/07 12:05:23;;;;;;;0.70;0.70;;;;;;;6.51;100.00;99707.47;6285919;28;20187;-74
2021/11/07 12:08:40;;;;;;;0.70;0.70;;;;;;;6.58;100.00;99713.69;6286953;28;20247;-73
2021/11/07 12:11:48;;;;;;;0.67;0.67;;;;;;;6.37;100.00;99716.75;6291431;28;20184;-74
2021/11/07 12:15:07;;;;;;;1.00;1.00;;;;;;;6.45;100.00;99724.59;6292022;28;20185;-75
2021/11/07 12:18:16;;;;;;;0.70;0.70;;;;;;;6.35;100.00;99719.66;6291376;28;20196;-73
2021/11/07 12:21:23;;;;;;;1.67;0.87;;;;;;;6.36;100.00;99721.31;6290629;28;20471;-73
2021/11/07 12:24:30;;;;;;;0.87;0.87;;;;;;;6.37;100.00;99716.75;6291480;28;20215;-73
2021/11/07 12:27:40;;;;;;;0.93;0.90;;;;;;;6.15;99.50;99732.47;6290326;28;20534;-73
2021/11/07 12:30:45;;;;;;;0.70;0.70;;;;;;;6.25;99.42;99724.72;6290672;28;20227;-73
2021/11/07 12:33:55;;;;;;;2.30;0.70;;;;;;;6.18;99.83;99741.00;6291607;28;20184;-73
2021/11/07 12:40:46;;;;;;;1.63;0.50;;;;;;;6.19;99.54;99737.22;6258305;28;20212;-73
2021/11/07 12:43:59;;;;;;;0.70;0.70;;;;;;;6.15;100.00;99752.25;6284552;28;20203;-73
2021/11/07 12:47:08;;;;;;;0.60;0.60;;;;;;;6.06;99.68;99742.69;6291114;28;20216;-73
2021/11/07 12:50:12;;;;;;;1.60;0.60;;;;;;;6.07;100.00;99749.78;6290721;28;20191;-73
2021/11/07 12:53:18;;;;;;;0.53;0.53;;;;;;;6.03;100.00;99753.97;6290882;28;20184;-73
2021/11/07 12:56:35;;;;;;;0.50;0.50;;;;;;;6.03;100.00;99758.56;6289883;28;20411;-74
2021/11/07 12:59:41;;;;;;;0.77;0.60;;;;;;;6.07;100.00;99762.50;6290615;28;20188;-74
2021/11/07 13:02:45;;;;;;;2.73;0.60;;;;;;;6.10;100.00;99765.63;6290705;28;20187;-74
2021/11/07 13:05:53;;;;;;;0.70;0.70;;;;;;;6.04;100.00;99771.03;6290225;28;20281;-74
2021/11/07 13:09:02;;;;;;;0.50;0.50;;;;;;;6.06;99.67;99764.34;6289511;28;20236;-74
2021/11/07 13:12:18;;;;;;;0.60;0.60;;;;;;;6.06;99.80;99775.19;6290513;28;20255;-74
2021/11/07 13:15:33;;;;;;;0.67;0.50;;;;;;;5.93;100.00;99793.38;6290585;28;20247;-74
2021/11/07 13:22:14;;;;;;;0.93;0.57;;;;;;;5.92;100.00;99779.00;6287183;28;20325;-73
2021/11/07 13:25:32;;;;;;;0.60;0.60;;;;;;;5.88;100.00;99793.19;6290245;28;20188;-74
2021/11/07 13:28:39;;;;;;;0.60;0.60;;;;;;;5.96;100.00;99785.63;6288776;28;20215;-74
2021/11/07 13:31:47;;;;;;;0.60;0.60;;;;;;;5.97;100.00;99790.03;6290110;28;20192;-74
2021/11/07 13:35:01;;;;;;;1.40;0.80;;;;;;;5.95;99.43;99793.97;6289127;28;20470;-74
2021/11/07 13:38:10;;;;;;;0.50;0.50;;;;;;;6.03;98.11;99807.28;6290160;28;20188;-74
2021/11/07 13:41:19;;;;;;;0.60;0.60;;;;;;;5.93;98.35;99809.63;6290610;28;20210;-74
2021/11/07 13:44:25;;;;;;;0.63;0.63;;;;;;;5.93;98.71;99815.03;6289196;28;20253;-74
2021/11/07 13:47:31;;;;;;;0.50;0.50;;;;;;;5.91;99.49;99809.81;6289485;28;20278;-74
2021/11/07 13:50:35;;;;;;;0.50;0.50;;;;;;;6.06;99.96;99817.72;6290016;28;20216;-74
2021/11/07 13:53:42;;;;;;;0.60;0.60;;;;;;;5.85;100.00;99821.50;6289841;28;20252;-74
2021/11/07 13:56:49;;;;;;;0.60;0.60;;;;;;;5.91;100.00;99826.06;6289758;28;20187;-73
2021/11/07 13:59:53;;;;;;;0.70;0.70;;;;;;;5.88;100.00;99831.88;6289211;28;20188;-74
2021/11/07 14:02:58;;;;;;;0.60;0.60;;;;;;;5.86;100.00;99843.97;6288255;28;20184;-73
2021/11/07 14:06:09;;;;;;;0.53;0.53;;;;;;;5.87;100.00;99841.06;6288583;28;20239;-74
2021/11/07 14:09:14;;;;;;;1.17;0.73;;;;;;;5.84;99.70;99854.97;6289483;28;20277;-74
2021/11/07 14:12:31;;;;;;;0.70;0.70;;;;;;;5.79;97.88;99860.19;6288089;28;20415;-73
2021/11/07 14:15:42;;;;;;;0.70;0.70;;;;;;;5.67;99.60;99867.28;6289477;28;20225;-73
2021/11/07 14:18:48;;;;;;;2.53;0.60;;;;;;;5.79;99.61;99871.03;6289332;28;20227;-74
2021/11/07 14:21:55;;;;;;;0.90;0.90;;;;;;;5.78;100.00;99873.94;6288778;28;20193;-74
2021/11/07 14:25:06;;;;;;;0.90;0.90;;;;;;;5.63;98.94;99876.84;6270225;28;20235;-74
2021/11/07 14:28:21;;;;;;;0.93;0.60;;;;;;;5.56;99.97;99876.03;6288827;28;20285;-74
2021/11/07 14:31:29;;;;;;;0.80;0.80;;;;;;;5.61;100.00;99884.34;6288462;28;20255;-74
2021/11/07 14:34:39;;;;;;;0.80;0.80;;;;;;;5.68;99.83;99893.28;6286705;28;20562;-73
2021/11/07 14:37:48;;;;;;;0.73;0.73;;;;;;;5.65;100.00;99891.00;6288263;28;20275;-74
2021/11/07 14:41:01;;;;;;;0.60;0.60;;;;;;;5.63;99.17;99901.19;6287200;28;20382;-73
2021/11/07 14:44:17;;;;;;;0.70;0.70;;;;;;;5.72;99.09;99918.91;6288897;28;20187;-74
2021/11/07 14:47:27;;;;;;;0.80;0.80;;;;;;;5.65;99.00;99918.06;6288302;28;20191;-73
2021/11/07 14:50:45;;;;;;;0.77;0.77;;;;;;;5.66;98.93;99919.72;6287341;28;20219;-73
2021/11/07 14:53:57;;;;;;;0.60;0.60;;;;;;;5.70;99.61;99927.22;6288476;28;20265;-73
2021/11/07 14:57:16;;;;;;;0.70;0.70;;;;;;;5.71;98.89;99928.06;6288190;28;20187;-73
2021/11/07 15:00:37;;;;;;;0.60;0.60;;;;;;;5.72;98.33;99937.84;6288708;28;20219;-73
2021/11/07 15:03:50;;;;;;;0.60;0.60;;;;;;;5.64;98.87;99946.16;6287803;28;20230;-73
2021/11/07 15:06:59;;;;;;;0.70;0.70;;;;;;;5.62;98.66;99946.34;6287580;28;20266;-73
2021/11/07 15:10:21;;;;;;;0.70;0.70;;;;;;;5.51;98.64;99959.69;6286961;28;20262;-73
2021/11/07 15:13:36;;;;;;;0.50;0.50;;;;;;;5.31;98.92;99964.22;6287855;28;20187;-73
2021/11/07 15:16:46;;;;;;;0.87;0.87;;;;;;;5.45;100.00;99976.72;6287411;28;20188;-73
2021/11/07 15:20:14;;;;;;;0.80;0.80;;;;;;;5.50;99.96;99968.81;6287735;28;20228;-74
2021/11/07 15:23:31;;;;;;;0.63;0.63;;;;;;;5.52;98.74;99977.59;6287688;28;20188;-73
2021/11/07 15:26:42;;;;;;;0.83;0.83;;;;;;;5.46;99.30;99983.81;6287619;28;20194;-73
2021/11/07 15:29:55;;;;;;;0.80;0.80;;;;;;;5.50;99.10;99990.47;6289574;28;20222;-75